createdAt,value
2022-12-11T00:02:11.036Z,10.00
2022-12-11T00:04:37.526Z,10.00
2022-12-11T00:07:03.999Z,10.00
2022-12-11T00:09:30.450Z,10.00
2022-12-11T00:11:56.913Z,10.00
2022-12-11T00:14:23.382Z,9.90
2022-12-11T00:16:49.954Z,9.90
2022-12-11T00:19:16.505Z,9.90
2022-12-11T00:21:42.986Z,9.90
2022-12-11T00:24:09.479Z,9.90
2022-12-11T00:26:35.962Z,9.90
2022-12-11T00:29:02.435Z,9.90
2022-12-11T00:31:28.947Z,9.90
2022-12-11T00:36:39.294Z,9.90
2022-12-11T00:39:05.758Z,9.90
2022-12-11T00:41:32.210Z,9.80
2022-12-11T00:43:58.686Z,9.80
2022-12-11T00:46:25.171Z,9.80
2022-12-11T00:48:51.703Z,9.80
2022-12-11T00:51:18.169Z,9.80
2022-12-11T00:53:44.635Z,9.90
2022-12-11T00:56:11.104Z,9.90
2022-12-11T00:58:37.576Z,9.90
2022-12-11T01:01:04.078Z,9.90
2022-12-11T01:03:30.626Z,9.90
2022-12-11T01:05:57.095Z,9.90
2022-12-11T01:08:23.588Z,9.90
2022-12-11T01:10:50.230Z,9.90
2022-12-11T01:13:16.729Z,9.90
2022-12-11T01:15:43.211Z,9.90
2022-12-11T01:18:09.668Z,9.90
2022-12-11T01:20:36.133Z,9.90
2022-12-11T01:23:02.571Z,9.90
2022-12-11T01:25:29.025Z,9.90
2022-12-11T01:27:55.483Z,9.90
2022-12-11T01:30:21.938Z,9.90
2022-12-11T01:32:48.387Z,9.90
2022-12-11T01:35:14.868Z,9.90
2022-12-11T01:37:41.338Z,9.90
2022-12-11T01:40:07.803Z,9.80
2022-12-11T01:42:34.279Z,9.80
2022-12-11T01:45:00.753Z,9.80
2022-12-11T01:47:27.240Z,9.80
2022-12-11T01:49:53.710Z,9.80
2022-12-11T01:52:20.170Z,9.80
2022-12-11T01:54:46.620Z,9.80
2022-12-11T01:57:13.085Z,9.80
2022-12-11T01:59:39.555Z,9.80
2022-12-11T02:02:06.117Z,9.70
2022-12-11T02:04:32.620Z,9.70
2022-12-11T02:06:59.123Z,9.80
2022-12-11T02:09:25.584Z,9.80
2022-12-11T02:11:52.057Z,9.80
2022-12-11T02:14:18.509Z,9.80
2022-12-11T02:16:45.034Z,9.80
2022-12-11T02:19:11.530Z,9.80
2022-12-11T02:21:37.975Z,9.80
2022-12-11T02:24:04.429Z,9.90
2022-12-11T02:26:30.909Z,9.90
2022-12-11T02:28:57.357Z,9.90
2022-12-11T02:31:23.887Z,9.80
2022-12-11T02:33:50.429Z,9.80
2022-12-11T02:36:16.903Z,9.80
2022-12-11T02:38:43.361Z,9.80
2022-12-11T02:41:09.839Z,9.80
2022-12-11T02:43:36.293Z,9.80
2022-12-11T02:46:02.905Z,9.80
2022-12-11T02:48:29.383Z,9.80
2022-12-11T02:50:55.850Z,9.80
2022-12-11T02:53:22.308Z,9.80
2022-12-11T02:55:48.754Z,9.80
2022-12-11T02:58:15.212Z,9.80
2022-12-11T03:00:41.652Z,9.70
2022-12-11T03:03:08.121Z,9.70
2022-12-11T03:05:34.618Z,9.70
2022-12-11T03:08:01.124Z,9.70
2022-12-11T03:10:27.631Z,9.70
2022-12-11T03:12:54.226Z,9.70
2022-12-11T03:15:20.717Z,9.80
2022-12-11T03:17:47.196Z,9.80
2022-12-11T03:20:13.652Z,9.80
2022-12-11T03:22:40.110Z,9.70
2022-12-11T03:25:06.576Z,9.70
2022-12-11T03:27:33.052Z,9.80
2022-12-11T03:29:59.520Z,9.70
2022-12-11T03:32:25.939Z,9.80
2022-12-11T03:34:56.939Z,9.80
2022-12-11T03:37:24.725Z,9.80
2022-12-11T03:39:51.190Z,9.80
2022-12-11T03:42:17.649Z,9.80
2022-12-11T03:44:44.098Z,9.70
2022-12-11T03:47:10.569Z,9.70
2022-12-11T03:49:37.025Z,9.80
2022-12-11T03:52:03.662Z,9.80
2022-12-11T03:54:30.130Z,9.70
2022-12-11T03:56:56.600Z,9.60
2022-12-11T03:59:23.069Z,9.70
2022-12-11T04:01:49.594Z,9.70
2022-12-11T04:04:16.084Z,9.70
2022-12-11T04:06:42.576Z,9.60
2022-12-11T04:09:09.022Z,9.70
2022-12-11T04:11:35.463Z,9.70
2022-12-11T04:14:01.951Z,9.70
2022-12-11T04:16:28.409Z,9.70
2022-12-11T04:18:54.900Z,9.70
2022-12-11T04:21:21.364Z,9.70
2022-12-11T04:23:47.818Z,9.70
2022-12-11T04:26:14.298Z,9.70
2022-12-11T04:28:40.762Z,9.70
2022-12-11T04:31:07.297Z,9.70
2022-12-11T04:33:33.819Z,9.70
2022-12-11T04:36:00.288Z,9.70
2022-12-11T04:38:26.748Z,9.70
2022-12-11T04:40:53.221Z,9.70
2022-12-11T04:43:19.687Z,9.70
2022-12-11T04:45:46.132Z,9.70
2022-12-11T04:48:12.606Z,9.70
2022-12-11T04:50:39.059Z,9.70
2022-12-11T04:53:05.517Z,9.70
2022-12-11T04:55:31.989Z,9.70
2022-12-11T04:57:58.434Z,9.70
2022-12-11T05:00:24.902Z,9.70
2022-12-11T05:02:51.391Z,9.70
2022-12-11T05:05:17.856Z,9.70
2022-12-11T05:07:44.387Z,9.70
2022-12-11T05:10:10.864Z,9.80
2022-12-11T05:12:37.339Z,9.70
2022-12-11T05:15:03.796Z,9.80
2022-12-11T05:17:30.259Z,9.90
2022-12-11T05:19:56.716Z,9.80
2022-12-11T05:22:23.186Z,9.90
2022-12-11T05:24:49.641Z,10.00
2022-12-11T05:27:16.104Z,10.20
2022-12-11T05:29:42.566Z,10.00
2022-12-11T05:32:09.046Z,9.90
2022-12-11T05:34:35.518Z,10.10
2022-12-11T05:37:01.996Z,10.00
2022-12-11T05:39:28.478Z,10.00
2022-12-11T05:41:54.927Z,10.10
2022-12-11T05:44:21.379Z,10.20
2022-12-11T05:46:47.872Z,10.00
2022-12-11T05:49:14.801Z,10.10
2022-12-11T05:51:43.048Z,10.30
2022-12-11T05:54:09.523Z,10.30
2022-12-11T05:56:36.085Z,10.40
2022-12-11T05:59:02.729Z,10.50
2022-12-11T06:01:29.171Z,10.40
2022-12-11T06:03:55.646Z,10.40
2022-12-11T06:06:22.116Z,10.50
2022-12-11T06:08:48.585Z,10.70
2022-12-11T06:11:18.396Z,10.70
2022-12-11T06:13:47.459Z,10.80
2022-12-11T06:16:13.936Z,10.80
2022-12-11T06:18:40.411Z,10.90
2022-12-11T06:21:06.880Z,10.80
2022-12-11T06:23:33.342Z,11.00
2022-12-11T06:25:59.807Z,11.00
2022-12-11T06:28:26.278Z,10.90
2022-12-11T06:30:52.749Z,11.00
2022-12-11T06:33:19.210Z,11.30
2022-12-11T06:35:45.684Z,11.30
2022-12-11T06:38:12.141Z,11.10
2022-12-11T06:40:38.607Z,11.40
2022-12-11T06:43:05.085Z,11.60
2022-12-11T06:45:31.571Z,11.50
2022-12-11T06:47:58.090Z,11.40
2022-12-11T06:50:24.556Z,11.40
2022-12-11T06:52:51.031Z,11.70
2022-12-11T06:55:17.486Z,11.50
2022-12-11T06:57:43.958Z,11.70
2022-12-11T07:00:10.431Z,11.80
2022-12-11T07:02:36.933Z,11.80
2022-12-11T07:05:03.455Z,11.70
2022-12-11T07:07:29.927Z,11.90
2022-12-11T07:09:56.386Z,12.00
2022-12-11T07:12:22.850Z,12.00
2022-12-11T07:14:49.300Z,11.90
2022-12-11T07:17:15.753Z,12.20
2022-12-11T07:19:42.212Z,12.20
2022-12-11T07:22:08.699Z,12.10
2022-12-11T07:24:35.143Z,12.20
2022-12-11T07:27:01.597Z,12.30
2022-12-11T07:29:28.066Z,12.10
2022-12-11T07:31:54.609Z,12.20
2022-12-11T07:34:21.140Z,12.40
2022-12-11T07:36:47.612Z,12.50
2022-12-11T07:39:14.073Z,12.60
2022-12-11T07:41:40.526Z,12.50
2022-12-11T07:44:07.005Z,12.40
2022-12-11T07:46:33.471Z,12.50
2022-12-11T07:48:59.915Z,12.50
2022-12-11T07:51:26.400Z,12.50
2022-12-11T07:53:52.853Z,12.30
2022-12-11T07:56:19.316Z,12.80
2022-12-11T07:58:45.776Z,12.80
2022-12-11T08:01:12.251Z,12.80
2022-12-11T08:03:38.747Z,12.90
2022-12-11T08:06:05.198Z,13.00
2022-12-11T08:08:31.648Z,13.10
2022-12-11T08:10:58.106Z,12.90
2022-12-11T08:13:24.568Z,13.00
2022-12-11T08:15:51.018Z,13.20
2022-12-11T08:18:17.502Z,13.20
2022-12-11T08:20:43.992Z,13.20
2022-12-11T08:23:10.456Z,13.10
2022-12-11T08:25:36.903Z,13.00
2022-12-11T08:28:03.374Z,13.00
2022-12-11T08:30:29.891Z,13.20
2022-12-11T08:32:56.375Z,13.30
2022-12-11T08:35:22.838Z,13.00
2022-12-11T08:37:49.289Z,13.30
2022-12-11T08:40:15.758Z,13.40
2022-12-11T08:42:42.238Z,13.30
2022-12-11T08:45:08.804Z,13.40
2022-12-11T08:47:35.373Z,13.30
2022-12-11T08:50:01.827Z,13.40
2022-12-11T08:52:28.306Z,13.40
2022-12-11T08:54:54.767Z,13.50
2022-12-11T08:57:21.216Z,13.40
2022-12-11T08:59:47.679Z,13.30
2022-12-11T09:02:14.235Z,13.40
2022-12-11T09:04:40.708Z,13.40
2022-12-11T09:07:07.165Z,13.60
2022-12-11T09:09:33.619Z,13.50
2022-12-11T09:12:00.071Z,13.50
2022-12-11T09:14:26.533Z,13.60
2022-12-11T09:16:52.976Z,13.60
2022-12-11T09:19:19.462Z,13.60
2022-12-11T09:21:45.934Z,13.50
2022-12-11T09:24:12.397Z,13.50
2022-12-11T09:26:38.875Z,13.50
2022-12-11T09:29:05.330Z,13.40
2022-12-11T09:31:31.830Z,13.30
2022-12-11T09:33:58.288Z,13.30
2022-12-11T09:36:24.745Z,13.20
2022-12-11T09:38:51.212Z,13.20
2022-12-11T09:41:17.680Z,13.20
2022-12-11T09:43:44.132Z,13.20
2022-12-11T09:46:10.637Z,13.20
2022-12-11T09:48:37.116Z,13.20
2022-12-11T09:51:03.592Z,13.20
2022-12-11T09:53:34.086Z,13.20
2022-12-11T09:56:00.943Z,13.20
2022-12-11T09:58:27.416Z,13.10
2022-12-11T10:00:53.886Z,13.10
2022-12-11T10:03:20.348Z,13.00
2022-12-11T10:05:46.818Z,12.80
2022-12-11T10:08:13.293Z,12.80
2022-12-11T10:10:39.811Z,12.70
2022-12-11T10:13:06.246Z,12.60
2022-12-11T10:15:32.748Z,12.60
2022-12-11T10:18:04.703Z,12.50
2022-12-11T10:20:31.722Z,12.80
2022-12-11T10:22:58.193Z,12.60
2022-12-11T10:25:25.041Z,12.40
2022-12-11T10:27:51.828Z,12.30
2022-12-11T10:30:18.401Z,12.40
2022-12-11T10:32:44.879Z,12.20
2022-12-11T10:35:11.604Z,12.30
2022-12-11T10:37:38.266Z,12.30
2022-12-11T10:40:04.764Z,12.40
2022-12-11T10:42:31.225Z,12.30
2022-12-11T10:44:57.691Z,12.10
2022-12-11T10:47:24.138Z,12.20
2022-12-11T10:49:50.582Z,12.20
2022-12-11T10:52:17.053Z,12.00
2022-12-11T10:54:43.513Z,12.00
2022-12-11T10:57:09.984Z,12.10
2022-12-11T10:59:36.447Z,11.90
2022-12-11T11:02:02.951Z,11.90
2022-12-11T11:04:29.430Z,11.70
2022-12-11T11:06:55.872Z,11.70
2022-12-11T11:09:22.333Z,11.70
2022-12-11T11:11:48.810Z,11.70
2022-12-11T11:14:15.283Z,11.60
2022-12-11T11:16:41.769Z,11.50
2022-12-11T11:19:08.226Z,11.50
2022-12-11T11:21:34.720Z,11.50
2022-12-11T11:24:01.177Z,11.40
2022-12-11T11:26:38.402Z,11.40
2022-12-11T11:29:14.072Z,11.40
2022-12-11T11:31:40.564Z,11.40
2022-12-11T11:34:07.053Z,11.50
2022-12-11T11:36:33.523Z,11.50
2022-12-11T11:38:59.984Z,11.50
2022-12-11T11:41:26.444Z,11.50
2022-12-11T11:43:52.902Z,11.40
2022-12-11T11:46:19.421Z,11.30
2022-12-11T11:48:45.890Z,11.40
2022-12-11T11:51:12.344Z,11.40
2022-12-11T11:53:38.808Z,11.30
2022-12-11T11:56:05.279Z,11.30
2022-12-11T11:58:31.720Z,11.30
2022-12-11T12:00:58.179Z,11.40
2022-12-11T12:03:24.626Z,11.30
2022-12-11T12:05:51.100Z,11.30
2022-12-11T12:08:17.579Z,11.30
2022-12-11T12:10:44.039Z,11.30
2022-12-11T12:13:30.213Z,11.30
2022-12-11T12:15:56.961Z,11.10
2022-12-11T12:18:23.475Z,11.10
2022-12-11T12:20:49.950Z,11.10
2022-12-11T12:23:16.400Z,11.00
2022-12-11T12:25:42.874Z,11.00
2022-12-11T12:28:09.330Z,10.90
2022-12-11T12:30:35.790Z,10.90
2022-12-11T12:33:02.248Z,10.90
2022-12-11T12:35:28.717Z,10.90
2022-12-11T12:37:55.186Z,11.20
2022-12-11T12:40:21.658Z,11.30
2022-12-11T12:42:48.101Z,11.20
2022-12-11T12:45:14.763Z,11.10
2022-12-11T12:47:41.332Z,11.00
2022-12-11T12:50:07.782Z,11.00
2022-12-11T12:52:34.245Z,11.00
2022-12-11T12:55:00.708Z,10.90
2022-12-11T12:57:27.168Z,10.90
2022-12-11T12:59:53.631Z,11.00
2022-12-11T13:02:20.221Z,11.30
2022-12-11T13:04:55.898Z,11.30
2022-12-11T13:07:22.976Z,11.20
2022-12-11T13:09:49.424Z,11.10
2022-12-11T13:12:15.911Z,11.20
2022-12-11T13:14:42.354Z,11.30
2022-12-11T13:17:08.818Z,11.40
2022-12-11T13:19:40.675Z,11.50
2022-12-11T13:22:08.967Z,11.70
2022-12-11T13:24:35.441Z,11.80
2022-12-11T13:27:01.893Z,11.80
2022-12-11T13:29:28.377Z,11.90
2022-12-11T13:31:54.882Z,11.70
2022-12-11T13:34:21.406Z,11.80
2022-12-11T13:36:47.880Z,11.80
2022-12-11T13:39:14.342Z,11.90
2022-12-11T13:41:40.833Z,12.20
2022-12-11T13:44:07.294Z,12.40
2022-12-11T13:46:33.758Z,12.20
2022-12-11T13:49:00.229Z,12.60
2022-12-11T13:51:26.715Z,12.80
2022-12-11T13:53:53.183Z,12.90
2022-12-11T13:56:19.669Z,13.00
2022-12-11T13:58:46.137Z,13.10
2022-12-11T14:01:12.667Z,13.10
2022-12-11T14:03:39.157Z,13.10
2022-12-11T14:06:05.621Z,13.00
2022-12-11T14:08:32.112Z,13.00
2022-12-11T14:10:58.596Z,13.00
2022-12-11T14:13:25.048Z,13.00
2022-12-11T14:15:51.502Z,12.50
2022-12-11T14:18:17.974Z,12.30
2022-12-11T14:20:44.447Z,12.20
2022-12-11T14:23:10.919Z,12.10
2022-12-11T14:25:37.381Z,12.00
2022-12-11T14:28:03.836Z,11.90
2022-12-11T14:30:30.301Z,12.20
2022-12-11T14:32:56.787Z,12.60
2022-12-11T14:35:23.263Z,12.80
2022-12-11T14:37:49.725Z,13.00
2022-12-11T14:40:16.190Z,12.90
2022-12-11T14:42:42.675Z,13.00
2022-12-11T14:45:09.137Z,13.10
2022-12-11T14:50:26.313Z,12.90
2022-12-11T14:52:52.776Z,12.40
2022-12-11T14:55:27.702Z,12.20
2022-12-11T14:57:57.599Z,12.10
2022-12-11T15:00:24.099Z,12.10
2022-12-11T15:02:50.630Z,12.10
2022-12-11T15:05:17.096Z,12.50
2022-12-11T15:07:43.561Z,12.60
2022-12-11T15:10:10.443Z,12.80
2022-12-11T15:12:37.092Z,13.00
2022-12-11T15:15:03.547Z,13.00
2022-12-11T15:17:33.643Z,13.10
2022-12-11T15:20:00.111Z,13.10
2022-12-11T15:22:26.583Z,13.10
2022-12-11T15:24:53.047Z,13.00
2022-12-11T15:27:19.503Z,12.80
2022-12-11T15:29:45.972Z,12.40
2022-12-11T15:32:12.434Z,12.10
2022-12-11T15:34:39.642Z,12.10
2022-12-11T15:37:06.099Z,12.20
2022-12-11T15:39:33.650Z,12.00
2022-12-11T15:42:00.101Z,12.30
2022-12-11T15:44:26.583Z,12.70
2022-12-11T15:46:53.058Z,12.90
2022-12-11T15:49:19.533Z,13.00
2022-12-11T15:51:51.851Z,13.00
2022-12-11T15:54:18.315Z,13.00
2022-12-11T15:56:44.782Z,13.00
2022-12-11T15:59:11.243Z,13.10
2022-12-11T16:01:37.789Z,13.20
2022-12-11T16:04:09.692Z,12.80
2022-12-11T16:06:36.152Z,12.50
2022-12-11T16:09:02.619Z,12.10
2022-12-11T16:11:29.087Z,12.10
2022-12-11T16:13:55.561Z,12.00
2022-12-11T16:16:22.076Z,12.20
2022-12-11T16:18:48.565Z,12.50
2022-12-11T16:21:19.880Z,12.80
2022-12-11T16:23:47.958Z,13.00
2022-12-11T16:26:15.656Z,13.10
2022-12-11T16:28:42.174Z,13.00
2022-12-11T16:31:08.687Z,13.00
2022-12-11T16:33:35.223Z,13.00
2022-12-11T16:36:03.708Z,13.10
2022-12-11T16:38:30.167Z,13.00
2022-12-11T16:40:56.630Z,12.70
2022-12-11T16:43:23.081Z,12.50
2022-12-11T16:45:51.697Z,12.20
2022-12-11T16:48:21.908Z,12.20
2022-12-11T16:50:48.378Z,12.10
2022-12-11T16:53:14.840Z,12.30
2022-12-11T16:55:45.716Z,12.60
2022-12-11T16:58:12.174Z,12.90
2022-12-11T17:00:38.636Z,13.00
2022-12-11T17:03:05.126Z,13.10
2022-12-11T17:05:31.623Z,13.10
2022-12-11T17:07:58.126Z,13.10
2022-12-11T17:10:24.616Z,13.10
2022-12-11T17:12:51.082Z,13.20
2022-12-11T17:15:17.554Z,12.80
2022-12-11T17:17:44.011Z,12.40
2022-12-11T17:20:10.473Z,12.40
2022-12-11T17:22:36.916Z,12.40
2022-12-11T17:25:03.373Z,12.30
2022-12-11T17:27:29.860Z,12.20
2022-12-11T17:29:56.357Z,12.30
2022-12-11T17:32:27.798Z,12.70
2022-12-11T17:34:54.300Z,12.90
2022-12-11T17:37:27.824Z,13.00
2022-12-11T17:39:57.752Z,13.10
2022-12-11T17:42:24.201Z,13.00
2022-12-11T17:44:51.767Z,13.10
2022-12-11T17:47:21.942Z,13.10
2022-12-11T17:49:48.409Z,13.00
2022-12-11T17:52:14.883Z,12.60
2022-12-11T17:54:41.348Z,12.30
2022-12-11T17:57:07.799Z,12.40
2022-12-11T17:59:34.272Z,12.30
2022-12-11T18:02:00.890Z,12.20
2022-12-11T18:04:30.210Z,12.40
2022-12-11T18:06:56.677Z,12.70
2022-12-11T18:09:23.159Z,13.00
2022-12-11T18:11:49.623Z,13.10
2022-12-11T18:14:17.530Z,13.10
2022-12-11T18:16:44.176Z,13.10
2022-12-11T18:19:10.638Z,13.10
2022-12-11T18:21:39.772Z,13.10
2022-12-11T18:24:06.242Z,13.20
2022-12-11T18:26:32.724Z,13.20
2022-12-11T18:28:59.181Z,13.10
2022-12-11T18:31:25.690Z,13.20
2022-12-11T18:33:52.152Z,13.00
2022-12-11T18:36:18.625Z,13.10
2022-12-11T18:38:45.081Z,13.10
2022-12-11T18:41:11.559Z,13.00
2022-12-11T18:43:38.031Z,13.00
2022-12-11T18:46:04.618Z,13.00
2022-12-11T18:48:31.141Z,13.00
2022-12-11T18:50:57.661Z,12.80
2022-12-11T18:53:27.814Z,12.80
2022-12-11T18:56:00.077Z,12.80
2022-12-11T18:58:26.948Z,12.80
2022-12-11T19:00:53.517Z,12.80
2022-12-11T19:03:20.015Z,12.90
2022-12-11T19:05:51.810Z,12.90
2022-12-11T19:08:18.367Z,12.80
2022-12-11T19:10:44.926Z,12.70
2022-12-11T19:13:11.400Z,12.70
2022-12-11T19:15:39.856Z,12.70
2022-12-11T19:18:06.327Z,12.50
2022-12-11T19:20:48.613Z,12.50
2022-12-11T19:23:16.547Z,12.50
2022-12-11T19:25:43.050Z,12.50
2022-12-11T19:28:09.495Z,12.60
2022-12-11T19:30:35.951Z,12.40
2022-12-11T19:33:02.428Z,12.20
2022-12-11T19:35:28.873Z,12.20
2022-12-11T19:37:55.322Z,12.20
2022-12-11T19:40:21.782Z,12.10
2022-12-11T19:42:51.852Z,12.00
2022-12-11T19:45:27.987Z,11.90
2022-12-11T19:47:54.463Z,11.90
2022-12-11T19:50:20.919Z,11.80
2022-12-11T19:52:47.388Z,11.90
2022-12-11T19:55:13.999Z,11.80
2022-12-11T19:57:40.526Z,11.80
2022-12-11T20:00:06.975Z,11.80
2022-12-11T20:02:33.519Z,11.70
2022-12-11T20:04:59.977Z,11.70
2022-12-11T20:07:30.649Z,11.60
2022-12-11T20:09:57.367Z,11.60
2022-12-11T20:12:23.828Z,11.50
2022-12-11T20:14:50.279Z,11.40
2022-12-11T20:17:16.823Z,11.40
2022-12-11T20:19:43.349Z,11.40
2022-12-11T20:22:09.805Z,11.50
2022-12-11T20:24:40.073Z,11.40
2022-12-11T20:27:06.549Z,11.40
2022-12-11T20:29:33.008Z,11.40
2022-12-11T20:31:59.607Z,11.40
2022-12-11T20:34:26.230Z,11.30
2022-12-11T20:36:52.711Z,11.30
2022-12-11T20:39:19.191Z,11.30
2022-12-11T20:41:45.695Z,11.30
2022-12-11T20:44:12.151Z,11.30
2022-12-11T20:46:38.627Z,11.30
2022-12-11T20:49:05.084Z,11.30
2022-12-11T20:51:31.545Z,11.30
2022-12-11T20:53:58.021Z,11.30
2022-12-11T20:56:24.473Z,11.20
2022-12-11T20:58:50.946Z,11.20
2022-12-11T21:01:17.450Z,11.20
2022-12-11T21:03:43.986Z,11.20
2022-12-11T21:06:10.465Z,11.20
2022-12-11T21:08:36.932Z,11.20
2022-12-11T21:11:03.394Z,11.10
2022-12-11T21:13:29.860Z,11.10
2022-12-11T21:15:56.328Z,11.20
2022-12-11T21:18:22.818Z,11.10
2022-12-11T21:20:49.284Z,11.10
2022-12-11T21:23:15.765Z,11.10
2022-12-11T21:25:42.219Z,11.10
2022-12-11T21:28:08.699Z,11.10
2022-12-11T21:30:39.986Z,11.10
2022-12-11T21:33:06.494Z,11.10
2022-12-11T21:35:32.941Z,11.10
2022-12-11T21:37:59.411Z,11.10
2022-12-11T21:40:25.882Z,11.10
2022-12-11T21:42:52.337Z,11.10
2022-12-11T21:45:59.238Z,11.10
2022-12-11T21:48:10.151Z,11.10
2022-12-11T21:50:36.617Z,11.00
2022-12-11T21:53:03.092Z,11.00
2022-12-11T21:55:29.567Z,11.10
2022-12-11T21:57:56.030Z,11.00
2022-12-11T22:00:27.972Z,11.00
2022-12-11T22:02:54.473Z,11.10
2022-12-11T22:05:20.944Z,11.00
2022-12-11T22:07:47.461Z,11.00
2022-12-11T22:10:13.974Z,11.00
2022-12-11T22:12:40.433Z,11.00
2022-12-11T22:15:06.903Z,10.90
2022-12-11T22:17:33.937Z,10.90
2022-12-11T22:20:04.006Z,10.90
2022-12-11T22:22:30.474Z,11.00
2022-12-11T22:27:47.173Z,11.00
2022-12-11T22:30:13.660Z,10.90
2022-12-11T22:32:40.127Z,10.90
2022-12-11T22:35:10.461Z,10.90
2022-12-11T22:37:37.258Z,10.90
2022-12-11T22:40:03.746Z,10.90
2022-12-11T22:42:30.209Z,10.90
2022-12-11T22:44:56.696Z,10.80
2022-12-11T22:47:23.159Z,10.80
2022-12-11T22:49:52.019Z,10.90
2022-12-11T22:52:18.473Z,10.90
2022-12-11T22:54:44.938Z,10.90
2022-12-11T22:57:11.401Z,11.00
2022-12-11T22:59:37.886Z,11.10
2022-12-11T23:02:04.424Z,11.00
2022-12-11T23:04:30.918Z,11.00
2022-12-11T23:06:57.382Z,11.00
2022-12-11T23:09:23.846Z,11.00
2022-12-11T23:11:50.316Z,11.00
2022-12-11T23:14:22.213Z,11.00
2022-12-11T23:16:48.737Z,11.10
2022-12-11T23:19:15.213Z,11.00
2022-12-11T23:21:41.683Z,11.00
2022-12-11T23:24:08.148Z,11.00
2022-12-11T23:26:34.627Z,11.10
2022-12-11T23:29:04.068Z,11.00
2022-12-11T23:31:30.569Z,11.00
2022-12-11T23:33:57.053Z,11.00
2022-12-11T23:39:14.134Z,10.90
2022-12-11T23:50:13.313Z,11.10
2022-12-11T23:52:39.776Z,11.00
2022-12-11T23:55:06.245Z,11.10
2022-12-11T23:57:32.699Z,11.00
